Time;durP1;ratioP1;P1;durP2;ratioP2;P2;SDS_P1;SDS_P2;PMS_P1;PMS_P2;Temp;Humidity;BMP_temperature;BMP_pressure;BME280_temperature;BME280_humidity;BME280_pressure;Samples;Min_cycle;Max_cycle;Signal;HPM_P1;HPM_P2
2023/09/20 00:01:51;;;;;;;11.85;11.55;;;;;;;-141.02;100.00;61698.22;5132544;27;20724;-58
2023/09/20 00:04:18;;;;;;;11.27;10.98;;;;;;;-141.02;100.00;60709.94;5133044;27;20654;-58
2023/09/20 00:06:47;;;;;;;10.43;10.13;;;;;;;-141.02;100.00;60215.94;5133322;27;20261;-58
2023/09/20 00:09:15;;;;;;;10.13;9.82;;;;;;;-141.02;100.00;59721.97;5132751;27;20224;-58
2023/09/20 00:11:45;;;;;;;8.25;8.05;;;;;;;-141.02;100.00;58981.19;5132894;27;20188;-58
2023/09/20 00:14:12;;;;;;;8.40;8.20;;;;;;;-141.02;100.00;58240.56;5132917;27;20196;-58
2023/09/20 00:16:40;;;;;;;7.70;7.50;;;;;;;-141.02;100.00;58240.56;5133149;27;20420;-58
2023/09/20 00:19:08;;;;;;;7.10;6.90;;;;;;;-141.02;100.00;57253.28;5132863;27;20288;-59
2023/09/20 00:21:35;;;;;;;6.82;6.63;;;;;;;-141.02;100.00;57253.28;5133365;27;20196;-59
2023/09/20 00:24:04;;;;;;;6.25;6.15;;;;;;;-141.02;100.00;57500.06;5132778;27;20196;-58
2023/09/20 00:26:32;;;;;;;5.88;5.78;;;;;;;-141.02;100.00;56513.03;5132848;27;20241;-59
2023/09/20 00:29:04;;;;;;;6.10;6.00;;;;;;;-141.02;100.00;54786.41;5133090;27;20200;-59
2023/09/20 00:31:32;;;;;;;5.90;5.80;;;;;;;-141.02;100.00;54046.69;5132820;27;20638;-59
2023/09/20 00:34:00;;;;;;;5.30;5.20;;;;;;;-141.02;100.00;53060.66;5133005;27;20220;-59
2023/09/20 00:36:27;;;;;;;5.90;5.80;;;;;;;-141.02;100.00;51335.78;5132964;27;20306;-59
2023/09/20 00:38:57;;;;;;;5.85;5.75;;;;;;;-141.02;100.00;50531.38;5133009;27;20189;-59
2023/09/20 00:41:24;;;;;;;6.10;6.00;;;;;;;-141.02;100.00;50210.06;5132632;27;20235;-59
2023/09/20 00:43:53;;;;;;;6.40;6.30;;;;;;;-141.02;100.00;51582.13;5132990;27;20277;-59
2023/09/20 00:46:20;;;;;;;6.03;5.93;;;;;;;-141.02;100.00;51582.13;5132841;27;20271;-59
2023/09/20 00:48:50;;;;;;;5.80;5.70;;;;;;;-141.02;100.00;52321.31;5132623;27;20188;-59
2023/09/20 00:51:21;;;;;;;5.80;5.70;;;;;;;-141.02;100.00;52567.75;5133155;27;20629;-59
2023/09/20 00:54:03;;;;;;;5.80;5.70;;;;;;;-141.02;100.00;53060.66;5132953;27;20275;-59
2023/09/20 00:56:30;;;;;;;5.80;5.70;;;;;;;-141.02;100.00;53800.16;5132456;27;20303;-64
2023/09/20 00:58:57;;;;;;;5.78;5.68;;;;;;;-141.02;100.00;53060.66;5132553;27;20313;-59
2023/09/20 01:01:27;;;;;;;6.20;6.10;;;;;;;-141.02;100.00;52567.75;5132699;27;20224;-59
2023/09/20 01:03:55;;;;;;;6.50;6.40;;;;;;;-141.02;100.00;52321.31;5132765;27;20200;-59
2023/09/20 01:06:26;;;;;;;6.43;6.32;;;;;;;-141.02;100.00;51582.13;5132420;27;20196;-59
2023/09/20 01:08:54;;;;;;;6.20;6.10;;;;;;;-141.02;100.00;51582.13;5132497;27;20267;-59
2023/09/20 01:11:21;;;;;;;5.97;5.88;;;;;;;-141.02;100.00;52074.91;5132395;27;20188;-59
2023/09/20 01:13:48;;;;;;;6.40;6.30;;;;;;;-141.02;100.00;51828.50;5136064;27;20280;-59
2023/09/20 01:16:15;;;;;;;6.07;5.97;;;;;;;-141.02;100.00;51335.78;5136393;27;20334;-59
2023/09/20 01:18:44;;;;;;;6.20;6.10;;;;;;;-141.02;100.00;49192.47;5136121;27;20192;-59
2023/09/20 01:21:11;;;;;;;6.30;6.20;;;;;;;-141.02;100.00;48442.44;5136424;27;20203;-59
2023/09/20 01:23:42;;;;;;;6.93;6.72;;;;;;;-141.02;100.00;47148.53;5136387;27;20294;-59
2023/09/20 01:26:11;;;;;;;7.15;6.95;;;;;;;-141.02;100.00;46283.66;5135993;27;20180;-60
2023/09/20 01:28:38;;;;;;;6.90;6.70;;;;;;;-141.02;100.00;45883.97;5136215;27;20196;-59
2023/09/20 01:31:05;;;;;;;7.47;7.28;;;;;;;-141.02;100.00;45495.84;5135865;27;20196;-59
2023/09/20 01:33:33;;;;;;;7.55;7.35;;;;;;;-141.02;100.00;45793.66;5136149;27;20196;-59
2023/09/20 01:36:02;;;;;;;7.90;7.70;;;;;;;-141.02;100.00;45588.06;5135675;27;20227;-60
2023/09/20 01:38:29;;;;;;;8.10;7.90;;;;;;;-141.02;100.00;45363.28;5136063;27;20196;-59
2023/09/20 01:40:58;;;;;;;8.50;8.30;;;;;;;-141.02;100.00;45224.94;5135989;27;20197;-59
2023/09/20 01:43:25;;;;;;;7.95;7.75;;;;;;;-141.02;100.00;46227.91;5135605;27;20197;-61
2023/09/20 01:45:53;;;;;;;7.47;7.28;;;;;;;-141.02;100.00;47113.94;5135633;27;20663;-59
2023/09/20 01:48:20;;;;;;;6.97;6.78;;;;;;;-141.02;100.00;47354.22;5135765;27;20572;-59
2023/09/20 01:50:50;;;;;;;6.70;6.50;;;;;;;-141.02;100.00;47413.81;5135861;27;20196;-59
2023/09/20 01:53:17;;;;;;;6.40;6.30;;;;;;;-141.02;100.00;48984.75;5135724;27;20276;-59
2023/09/20 01:55:43;;;;;;;6.95;6.75;;;;;;;-141.02;100.00;48494.34;5135630;27;20228;-60
2023/09/20 01:58:13;;;;;;;6.90;6.70;;;;;;;-141.02;100.00;49757.97;5135640;27;20251;-60
2023/09/20 02:00:41;;;;;;;6.70;6.50;;;;;;;-141.02;100.00;50596.81;5135311;27;20705;-59
2023/09/20 02:03:13;;;;;;;6.55;6.40;;;;;;;-141.02;100.00;51335.78;5135386;27;20198;-60
2023/09/20 02:05:41;;;;;;;6.72;6.53;;;;;;;-141.02;100.00;51335.78;5135289;27;20189;-60
2023/09/20 02:08:08;;;;;;;6.43;6.32;;;;;;;-141.02;100.00;52321.31;5134940;27;20571;-60
2023/09/20 02:10:36;;;;;;;5.90;5.80;;;;;;;-141.02;100.00;53553.63;5135101;27;20188;-60
2023/09/20 02:13:04;;;;;;;6.20;6.10;;;;;;;-141.02;100.00;53800.16;5135389;27;20193;-60
2023/09/20 02:15:34;;;;;;;6.40;6.30;;;;;;;-141.02;100.00;54293.25;5135238;27;20202;-60
2023/09/20 02:18:03;;;;;;;6.40;6.30;;;;;;;-141.02;100.00;54539.81;5135019;27;20673;-60
2023/09/20 02:20:37;;;;;;;6.40;6.30;;;;;;;-141.02;100.00;55526.28;5135292;27;20199;-60
2023/09/20 02:23:06;;;;;;;5.63;5.53;;;;;;;-141.02;100.00;56019.63;5135089;27;20593;-66
2023/09/20 02:25:33;;;;;;;5.80;5.70;;;;;;;-141.02;100.00;56019.63;5134719;27;20220;-60
2023/09/20 02:28:01;;;;;;;5.88;5.78;;;;;;;-141.02;100.00;56266.31;5134993;27;20197;-60
2023/09/20 02:30:32;;;;;;;5.80;5.70;;;;;;;-141.02;100.00;56759.78;5135059;27;20192;-60
2023/09/20 02:33:05;;;;;;;5.78;5.68;;;;;;;-141.02;100.00;56759.78;5135039;27;20219;-60
2023/09/20 02:35:32;;;;;;;5.72;5.63;;;;;;;-141.02;100.00;57746.88;5134924;27;20184;-61
2023/09/20 02:38:04;;;;;;;6.10;6.00;;;;;;;-141.02;100.00;57500.06;5134537;27;20647;-60
2023/09/20 02:40:31;;;;;;;5.93;5.82;;;;;;;-141.02;100.00;57993.72;5134614;27;20220;-60
2023/09/20 02:42:59;;;;;;;5.30;5.20;;;;;;;-141.02;100.00;57500.06;5134752;27;20200;-60
2023/09/20 02:45:28;;;;;;;5.20;5.10;;;;;;;-141.02;100.00;56513.03;5134692;27;20195;-60
2023/09/20 02:47:56;;;;;;;5.50;5.40;;;;;;;-141.02;100.00;55279.63;5134321;27;20203;-60
2023/09/20 02:50:25;;;;;;;5.80;5.70;;;;;;;-141.02;100.00;55033.00;5134609;27;20264;-60
2023/09/20 02:52:52;;;;;;;5.80;5.70;;;;;;;-141.02;100.00;53553.63;5134293;27;20315;-60
2023/09/20 02:55:21;;;;;;;5.65;5.55;;;;;;;-141.02;100.00;53060.66;5134182;27;20206;-60
2023/09/20 02:57:51;;;;;;;5.70;5.60;;;;;;;-141.02;100.00;52567.75;5134062;27;20232;-60
2023/09/20 03:00:21;;;;;;;5.30;5.20;;;;;;;-141.02;100.00;53553.63;5134478;27;20196;-60
2023/09/20 03:03:07;;;;;;;4.47;4.38;;;;;;;-141.02;100.00;52074.91;5134037;27;20578;-60
2023/09/20 03:05:37;;;;;;;5.40;5.30;;;;;;;-141.02;100.00;49842.63;5134007;27;20665;-61
2023/09/20 03:09:05;;;;;;;5.93;5.82;;;;;;;-141.02;100.00;48144.38;5132243;27;20237;-60
2023/09/20 03:11:35;;;;;;;6.30;6.20;;;;;;;-141.02;100.00;48450.13;5092998;28;20186;-61
2023/09/20 03:14:08;;;;;;;6.10;6.00;;;;;;;-141.02;100.00;50770.00;5093001;28;20201;-60
2023/09/20 03:16:35;;;;;;;6.10;6.00;;;;;;;-141.02;100.00;50208.16;5093392;28;20224;-60
2023/09/20 03:19:02;;;;;;;6.30;6.20;;;;;;;-141.02;100.00;48861.66;5093147;28;20200;-61
2023/09/20 03:21:30;;;;;;;6.25;6.15;;;;;;;-141.02;100.00;51582.13;5092819;28;20204;-61
2023/09/20 03:23:59;;;;;;;6.20;6.10;;;;;;;-141.02;100.00;52814.19;5092731;28;20193;-60
2023/09/20 03:29:48;;;;;;;6.13;6.03;;;;;;;-141.02;100.00;49944.59;5092661;28;20200;-60
2023/09/20 03:32:16;;;;;;;6.30;6.20;;;;;;;-141.02;100.00;51582.13;5092918;28;20205;-61
2023/09/20 03:34:43;;;;;;;5.60;5.50;;;;;;;-141.02;100.00;52321.31;5092451;28;20190;-61
2023/09/20 03:37:11;;;;;;;5.60;5.50;;;;;;;-141.02;100.00;52567.75;5091704;28;20230;-61
2023/09/20 03:39:40;;;;;;;5.60;5.50;;;;;;;-141.02;100.00;52567.75;5092818;28;20647;-61
2023/09/20 03:42:09;;;;;;;5.80;5.70;;;;;;;-141.02;100.00;52074.91;5092665;28;20666;-61
2023/09/20 03:44:36;;;;;;;5.85;5.75;;;;;;;-141.02;100.00;51335.78;5092719;28;20201;-61
2023/09/20 03:47:04;;;;;;;6.80;6.60;;;;;;;-141.02;100.00;51582.13;5092316;28;20251;-61
2023/09/20 03:49:31;;;;;;;6.20;6.10;;;;;;;-141.02;100.00;53060.66;5092363;28;20668;-61
2023/09/20 03:52:00;;;;;;;6.30;6.20;;;;;;;-141.02;100.00;53060.66;5092302;28;20285;-61
2023/09/20 03:54:28;;;;;;;6.28;6.18;;;;;;;-141.02;100.00;54046.69;5092585;28;20197;-62
2023/09/20 03:56:56;;;;;;;6.05;5.95;;;;;;;-141.02;100.00;55772.94;5092154;28;20230;-61
2023/09/20 03:59:26;;;;;;;5.88;5.78;;;;;;;-141.02;100.00;55279.63;5092497;28;20246;-61
2023/09/20 04:01:53;;;;;;;7.15;6.95;;;;;;;-141.02;100.00;54293.25;5092448;28;20648;-61
2023/09/20 04:04:20;;;;;;;7.20;7.00;;;;;;;-141.02;100.00;53307.13;5092113;28;20310;-61
2023/09/20 04:06:47;;;;;;;7.15;6.95;;;;;;;-141.02;100.00;53800.16;5092136;28;20580;-61
2023/09/20 04:09:14;;;;;;;7.10;6.90;;;;;;;-141.02;100.00;54293.25;5093928;28;20683;-62
2023/09/20 04:11:42;;;;;;;6.45;6.35;;;;;;;-141.02;100.00;56513.03;5133193;27;20180;-62
2023/09/20 04:14:10;;;;;;;6.90;6.70;;;;;;;-141.02;100.00;57253.28;5133269;27;20196;-61
2023/09/20 04:16:38;;;;;;;6.45;6.30;;;;;;;-141.02;100.00;57006.53;5133014;27;20224;-61
2023/09/20 04:19:05;;;;;;;6.95;6.75;;;;;;;-141.02;100.00;57253.28;5133225;27;20198;-61
2023/09/20 04:21:32;;;;;;;6.90;6.70;;;;;;;-141.02;100.00;57006.53;5133230;27;20192;-61
2023/09/20 04:24:00;;;;;;;7.30;7.10;;;;;;;-141.02;100.00;57746.88;5133120;27;20188;-62
2023/09/20 04:26:27;;;;;;;7.30;7.10;;;;;;;-141.02;100.00;60462.94;5133162;27;20201;-62
2023/09/20 04:28:55;;;;;;;6.40;6.30;;;;;;;-141.02;100.00;61451.13;5133066;27;20192;-62
2023/09/20 04:31:23;;;;;;;7.45;7.25;;;;;;;-141.02;100.00;61451.13;5133105;27;20189;-62
2023/09/20 04:33:52;;;;;;;6.65;6.45;;;;;;;-141.02;100.00;61698.22;5132780;27;20199;-74
2023/09/20 04:36:19;;;;;;;6.82;6.63;;;;;;;-141.02;100.00;62933.94;5132659;27;20638;-62
2023/09/20 04:38:46;;;;;;;7.00;6.80;;;;;;;-141.02;100.00;64664.72;5132665;27;20197;-62
2023/09/20 04:41:13;;;;;;;6.88;6.68;;;;;;;-141.02;100.00;66148.94;5132657;27;20227;-62
2023/09/20 04:43:40;;;;;;;6.80;6.60;;;;;;;-141.02;100.00;67633.81;5133026;27;20192;-62
2023/09/20 04:46:08;;;;;;;6.70;6.50;;;;;;;-141.02;100.00;69366.97;5132952;27;20192;-62
2023/09/20 04:48:35;;;;;;;6.32;6.22;;;;;;;-141.02;100.00;70110.03;5136578;27;20283;-62
2023/09/20 04:51:02;;;;;;;6.35;6.25;;;;;;;-141.02;100.00;71348.81;5136699;27;20283;-62
2023/09/20 04:53:30;;;;;;;5.82;5.72;;;;;;;-141.02;100.00;70110.03;5137079;27;20657;-62
2023/09/20 04:55:57;;;;;;;7.00;6.80;;;;;;;-141.02;100.00;69366.97;5136636;27;20201;-62
2023/09/20 04:58:24;;;;;;;7.25;7.05;;;;;;;-141.02;100.00;68624.09;5136821;27;20255;-62
2023/09/20 05:00:51;;;;;;;7.43;7.22;;;;;;;-141.02;100.00;68376.50;5136874;27;20572;-62
2023/09/20 05:03:19;;;;;;;7.72;7.53;;;;;;;-141.02;100.00;70357.75;5136443;27;20288;-61
2023/09/20 05:05:47;;;;;;;7.63;7.43;;;;;;;-141.02;100.00;71596.63;5136696;27;20279;-61
2023/09/20 05:08:15;;;;;;;7.15;6.95;;;;;;;-141.02;100.00;70605.50;5136463;27;20674;-62
2023/09/20 05:10:43;;;;;;;7.32;7.13;;;;;;;-141.02;100.00;70357.75;5136132;27;20236;-62
2023/09/20 05:13:10;;;;;;;7.85;7.65;;;;;;;-141.02;100.00;70357.75;5136633;27;20199;-62
2023/09/20 05:15:37;;;;;;;7.40;7.20;;;;;;;-141.02;100.00;69862.34;5136502;27;20200;-62
2023/09/20 05:18:05;;;;;;;6.85;6.65;;;;;;;-141.02;100.00;70110.03;5136100;27;20228;-62
2023/09/20 05:20:35;;;;;;;7.07;6.88;;;;;;;-141.02;100.00;69862.34;5136100;27;20196;-62
2023/09/20 05:23:04;;;;;;;6.22;6.13;;;;;;;-141.02;100.00;70357.75;5136373;27;20192;-62
2023/09/20 05:25:31;;;;;;;6.03;5.93;;;;;;;-141.02;100.00;69862.34;5136398;27;20189;-62
2023/09/20 05:27:58;;;;;;;5.78;5.68;;;;;;;-141.02;100.00;67633.81;5135978;27;20198;-62
2023/09/20 05:30:26;;;;;;;5.57;5.47;;;;;;;-141.02;100.00;67633.81;5136306;27;20192;-62
2023/09/20 05:32:53;;;;;;;5.07;4.97;;;;;;;-141.02;100.00;65901.53;5135860;27;20196;-62
2023/09/20 05:35:21;;;;;;;5.20;5.10;;;;;;;-141.02;100.00;65654.13;5135848;27;20581;-62
2023/09/20 05:37:49;;;;;;;4.47;4.38;;;;;;;-141.02;100.00;64912.06;5135984;27;20691;-62
2023/09/20 05:40:18;;;;;;;5.55;5.45;;;;;;;-141.02;100.00;64417.41;5136105;27;20196;-62
2023/09/20 05:42:45;;;;;;;4.72;4.63;;;;;;;-141.02;100.00;63428.38;5135709;27;20192;-62
2023/09/20 05:45:13;;;;;;;4.30;4.20;;;;;;;-141.02;100.00;64664.72;5135619;27;20287;-62
2023/09/20 05:47:41;;;;;;;3.75;3.65;;;;;;;-141.02;100.00;64170.13;5135633;27;20201;-62
2023/09/20 05:50:10;;;;;;;4.10;4.00;;;;;;;-141.02;100.00;64912.06;5135807;27;20192;-62
2023/09/20 05:52:40;;;;;;;3.75;3.65;;;;;;;-141.02;100.00;64912.06;5135828;27;20196;-62
2023/09/20 05:55:14;;;;;;;3.90;3.80;;;;;;;-141.02;100.00;65406.75;5135806;27;20253;-62
2023/09/20 05:57:41;;;;;;;4.13;4.03;;;;;;;-141.02;100.00;66148.94;5135402;27;20702;-62
2023/09/20 06:00:13;;;;;;;4.10;4.00;;;;;;;-141.02;100.00;65406.75;5134669;27;20197;-62
2023/09/20 06:02:43;;;;;;;3.70;3.60;;;;;;;-141.02;100.00;64170.13;5135726;27;20183;-62
2023/09/20 06:05:12;;;;;;;3.75;3.65;;;;;;;-141.02;100.00;64912.06;5135620;27;20275;-62
2023/09/20 06:07:40;;;;;;;4.25;4.15;;;;;;;-141.02;100.00;63675.59;5135549;27;20196;-62
2023/09/20 06:10:10;;;;;;;4.30;4.20;;;;;;;-141.02;100.00;62192.44;5135037;27;20228;-62
2023/09/20 06:12:37;;;;;;;4.90;4.80;;;;;;;-141.02;100.00;64912.06;5135422;27;20195;-63
2023/09/20 06:15:07;;;;;;;4.30;4.20;;;;;;;-141.02;100.00;66643.84;5135416;27;20283;-62
2023/09/20 06:17:36;;;;;;;4.25;4.15;;;;;;;-141.02;100.00;67633.81;5135255;27;20220;-62
2023/09/20 06:20:08;;;;;;;4.10;4.00;;;;;;;-141.02;100.00;70605.50;5135294;27;20276;-63
2023/09/20 06:22:36;;;;;;;3.80;3.70;;;;;;;-141.02;100.00;69614.66;5134972;27;20185;-62
2023/09/20 06:25:05;;;;;;;3.80;3.70;;;;;;;-141.02;100.00;68376.50;5135228;27;20197;-62
2023/09/20 06:27:34;;;;;;;4.40;4.30;;;;;;;-141.02;100.00;67386.28;5134864;27;20575;-80
2023/09/20 06:30:07;;;;;;;5.22;5.13;;;;;;;-141.02;100.00;65159.41;5134789;27;20193;-62
2023/09/20 06:32:34;;;;;;;5.60;5.50;;;;;;;-141.02;100.00;65406.75;5135143;27;20185;-63
2023/09/20 06:35:04;;;;;;;5.80;5.70;;;;;;;-141.02;100.00;65406.75;5134912;27;20199;-63
2023/09/20 06:37:31;;;;;;;6.00;5.90;;;;;;;-141.02;100.00;64417.41;5134718;27;20227;-63
2023/09/20 06:39:59;;;;;;;6.70;6.50;;;;;;;-141.02;100.00;62686.75;5134529;27;20193;-62
2023/09/20 06:42:30;;;;;;;7.30;7.10;;;;;;;-141.02;100.00;59475.03;5134498;27;20197;-63
2023/09/20 06:44:58;;;;;;;8.02;7.82;;;;;;;-141.02;100.00;59721.97;5134737;27;20191;-62
2023/09/20 06:47:25;;;;;;;8.60;8.40;;;;;;;-141.02;100.00;58734.28;5134677;27;20224;-63
2023/09/20 06:49:53;;;;;;;8.80;8.60;;;;;;;-141.02;100.00;57746.88;5134619;27;20189;-63
2023/09/20 06:52:19;;;;;;;8.75;8.55;;;;;;;-141.02;100.00;57253.28;5134253;27;20197;-62
2023/09/20 06:54:46;;;;;;;9.93;9.63;;;;;;;-141.02;100.00;56759.78;5134620;27;20272;-63
2023/09/20 06:57:18;;;;;;;9.77;9.48;;;;;;;-141.02;100.00;54123.72;5134103;27;20296;-62
2023/09/20 06:59:46;;;;;;;10.00;9.70;;;;;;;-141.02;100.00;52107.63;5134464;27;20271;-62
2023/09/20 07:02:16;;;;;;;11.20;10.90;;;;;;;-141.02;100.00;51780.38;5134066;27;20228;-63
2023/09/20 07:04:43;;;;;;;11.57;11.18;;;;;;;-141.02;100.00;50598.75;5134063;27;20231;-63
2023/09/20 07:07:12;;;;;;;11.80;11.40;;;;;;;-141.02;100.00;48900.13;5134047;27;20196;-63
2023/09/20 07:09:39;;;;;;;13.20;12.80;;;;;;;-141.02;100.00;48307.81;5133754;27;20254;-63
2023/09/20 07:12:09;;;;;;;13.35;12.95;;;;;;;-141.02;100.00;49040.50;5134273;27;20197;-62
2023/09/20 07:14:36;;;;;;;12.55;12.15;;;;;;;-141.02;100.00;49986.91;5133866;27;20577;-62
2023/09/20 07:17:03;;;;;;;11.77;11.38;;;;;;;-141.02;100.00;49742.59;5133559;27;20231;-63
2023/09/20 07:19:35;;;;;;;11.20;10.90;;;;;;;-141.02;100.00;51401.22;5134031;27;20249;-63
2023/09/20 07:22:05;;;;;;;12.40;12.00;;;;;;;-141.02;100.00;49769.53;5134019;27;20185;-63
2023/09/20 07:24:33;;;;;;;12.63;12.23;;;;;;;-141.02;100.00;49863.78;5134009;27;20271;-63
2023/09/20 07:27:00;;;;;;;12.75;12.35;;;;;;;-141.02;100.00;52943.19;5133573;27;20605;-63
2023/09/20 07:29:27;;;;;;;13.80;13.30;;;;;;;-141.02;100.00;50820.03;5134002;27;20279;-84
2023/09/20 07:31:54;;;;;;;14.75;14.25;;;;;;;-141.02;100.00;48057.84;5133563;27;20333;-62
2023/09/20 07:34:23;;;;;;;14.55;14.05;;;;;;;-141.02;100.00;49542.53;5133589;27;20669;-62
2023/09/20 07:36:56;;;;;;;14.70;14.20;;;;;;;-141.02;100.00;49273.25;5133390;27;20543;-62
2023/09/20 07:39:23;;;;;;;14.48;13.98;;;;;;;-141.02;100.00;49573.31;5133762;27;20216;-62
2023/09/20 07:41:51;;;;;;;14.48;13.98;;;;;;;-141.02;100.00;47852.13;5133589;27;20193;-62
2023/09/20 07:44:20;;;;;;;14.70;14.20;;;;;;;-141.02;100.00;47456.09;5133303;27;20184;-62
2023/09/20 07:46:47;;;;;;;13.60;13.20;;;;;;;-141.02;100.00;48765.50;5133526;27;20279;-62
2023/09/20 07:49:16;;;;;;;13.43;13.02;;;;;;;-141.02;100.00;48050.16;5133414;27;20280;-62
2023/09/20 07:51:42;;;;;;;14.15;13.65;;;;;;;-141.02;100.00;46349.00;5133487;27;20200;-62
2023/09/20 07:54:14;;;;;;;12.80;12.40;;;;;;;-141.02;100.00;51351.16;5133556;27;20276;-62
2023/09/20 07:56:43;;;;;;;13.68;13.27;;;;;;;-141.02;100.00;49734.91;5133163;27;20658;-62
2023/09/20 07:59:13;;;;;;;13.82;13.32;;;;;;;-141.02;100.00;48180.91;5133062;27;20273;-61
2023/09/20 08:01:42;;;;;;;14.15;13.65;;;;;;;-141.02;100.00;47961.72;5133053;27;20283;-62
2023/09/20 08:04:10;;;;;;;13.85;13.43;;;;;;;-141.02;100.00;47946.34;5133240;27;20366;-75
2023/09/20 08:06:40;;;;;;;13.65;13.25;;;;;;;-141.02;100.00;48165.53;5132959;27;20192;-62
2023/09/20 08:09:07;;;;;;;13.85;13.35;;;;;;;-141.02;100.00;47504.16;5132989;27;20196;-62
2023/09/20 08:11:37;;;;;;;14.52;14.02;;;;;;;-141.02;100.00;47223.50;5133269;27;20228;-62
2023/09/20 08:14:06;;;;;;;14.07;13.57;;;;;;;-141.02;100.00;48065.56;5133273;27;20251;-65
2023/09/20 08:16:33;;;;;;;14.40;13.90;;;;;;;-141.02;100.00;47677.19;5132883;27;20284;-62
2023/09/20 08:19:03;;;;;;;14.10;13.60;;;;;;;-141.02;100.00;47942.50;5133148;27;20269;-61
2023/09/20 08:21:32;;;;;;;13.65;13.25;;;;;;;-141.02;100.00;47019.75;5132498;27;20196;-61
2023/09/20 09:00:19;;;;;;;15.13;14.52;;;;;;;-141.02;100.00;46600.75;5132819;28;20241;-78
2023/09/20 09:02:49;;;;;;;15.50;14.80;;;;;;;-141.02;100.00;46362.44;5132464;27;20227;-61
2023/09/20 09:05:20;;;;;;;15.75;14.95;;;;;;;-141.02;97.22;45728.31;5132361;27;20200;-61
2023/09/20 09:07:47;;;;;;;16.67;15.77;;;;;;;-141.02;96.29;46350.91;5133051;27;20196;-61
2023/09/20 09:10:15;;;;;;;16.73;15.80;;;;;;;-141.02;93.34;45701.41;5132326;27;20256;-61
2023/09/20 09:12:42;;;;;;;16.23;15.40;;;;;;;-141.02;95.40;45728.31;5132643;27;20568;-61
2023/09/20 09:15:12;;;;;;;16.83;15.93;;;;;;;-141.02;97.10;45413.22;5132537;27;20281;-62
2023/09/20 09:17:40;;;;;;;16.10;15.30;;;;;;;-141.02;94.72;46189.50;5132411;27;20203;-61
2023/09/20 09:20:10;;;;;;;16.98;16.08;;;;;;;-141.02;89.47;46151.06;5132847;27;20193;-61
2023/09/20 09:22:38;;;;;;;17.60;16.60;;;;;;;-141.02;86.16;46635.34;5132596;27;20245;-61
2023/09/20 09:25:12;;;;;;;18.45;17.35;;;;;;;-141.02;80.89;46176.03;5132198;27;20637;-63
2023/09/20 09:27:40;;;;;;;18.60;17.50;;;;;;;-141.02;81.89;45962.75;5132260;27;20589;-61
2023/09/20 09:30:11;;;;;;;18.77;17.58;;;;;;;-141.02;79.36;46281.72;5132088;27;20203;-61
2023/09/20 09:32:39;;;;;;;19.05;17.85;;;;;;;-141.02;79.86;47067.81;5132140;27;20181;-61
2023/09/20 09:35:07;;;;;;;19.20;18.00;;;;;;;-141.02;77.87;47215.81;5134692;27;20287;-60
2023/09/20 09:37:36;;;;;;;19.23;18.02;;;;;;;-141.02;76.19;46537.31;5136082;27;20284;-61
2023/09/20 09:40:04;;;;;;;20.42;19.13;;;;;;;-141.02;78.54;47306.16;5135745;27;20192;-61
2023/09/20 09:42:31;;;;;;;19.30;18.10;;;;;;;-141.02;76.58;46735.28;5136068;27;20203;-60
2023/09/20 09:45:01;;;;;;;19.13;17.95;;;;;;;-141.02;79.29;47607.97;5135624;27;20203;-60
2023/09/20 09:47:30;;;;;;;19.38;18.17;;;;;;;-141.02;76.19;47096.63;5136057;27;20201;-60
2023/09/20 09:49:58;;;;;;;19.67;18.48;;;;;;;-141.02;74.16;46412.41;5135579;27;20332;-60
2023/09/20 09:52:26;;;;;;;19.50;18.30;;;;;;;-141.02;73.68;46370.13;5135396;27;20279;-60
2023/09/20 09:54:53;;;;;;;19.80;18.60;;;;;;;-141.02;74.96;47194.66;5135776;27;20197;-60
2023/09/20 09:57:21;;;;;;;20.45;19.25;;;;;;;-141.02;72.51;45722.56;5135744;27;20220;-60
2023/09/20 09:59:48;;;;;;;20.90;19.70;;;;;;;-141.02;72.46;45451.66;5135352;27;20238;-60
2023/09/20 10:02:18;;;;;;;20.10;19.00;;;;;;;-141.02;75.67;46212.53;5135352;27;20232;-60
2023/09/20 10:04:52;;;;;;;19.73;18.63;;;;;;;-141.02;72.36;45490.06;5135330;27;20189;-60
2023/09/20 10:07:22;;;;;;;19.85;18.75;;;;;;;-141.02;73.15;45928.16;5135292;27;20283;-60
2023/09/20 10:09:54;;;;;;;20.30;19.20;;;;;;;-141.02;73.90;46940.94;5135248;27;20232;-61
2023/09/20 10:12:23;;;;;;;20.88;19.67;;;;;;;-141.02;67.41;45816.72;5135486;27;20185;-60
2023/09/20 10:14:51;;;;;;;20.85;19.75;;;;;;;-141.02;67.90;45828.22;5135456;27;20200;-60
2023/09/20 10:17:20;;;;;;;22.40;21.20;;;;;;;-141.02;65.20;45196.13;5135457;27;20196;-66
2023/09/20 10:19:52;;;;;;;22.35;21.15;;;;;;;-141.02;66.73;44982.91;5134988;27;20228;-60
2023/09/20 10:22:21;;;;;;;21.88;20.67;;;;;;;-141.02;65.35;45269.13;5135045;27;20189;-60
2023/09/20 10:24:55;;;;;;;22.95;21.65;;;;;;;-141.02;66.27;45593.81;5135119;27;20192;-60
2023/09/20 10:27:23;;;;;;;23.02;21.73;;;;;;;-141.02;66.08;45762.91;5135515;27;20192;-60
2023/09/20 10:30:01;;;;;;;24.52;23.23;;;;;;;-141.02;65.07;44844.59;5135118;27;20235;-60
2023/09/20 10:32:35;;;;;;;22.83;21.52;;;;;;;-141.02;66.11;45067.44;5135162;27;20291;-60
2023/09/20 10:35:27;;;;;;;23.77;22.48;;;;;;;-141.02;63.81;45809.03;5134790;27;20236;-60
2023/09/20 10:38:27;;;;;;;22.70;21.47;;;;;;;-141.02;64.25;45355.59;5134970;27;20184;-60
2023/09/20 10:41:05;;;;;;;23.90;22.60;;;;;;;-141.02;62.44;45032.84;5134658;27;20413;-60
2023/09/20 10:43:48;;;;;;;22.65;21.38;;;;;;;-141.02;62.47;45597.66;5134648;27;20553;-60
2023/09/20 10:46:22;;;;;;;22.77;21.48;;;;;;;-141.02;62.46;45849.38;5134027;27;20647;-60
2023/09/20 10:48:51;;;;;;;23.65;22.25;;;;;;;-141.02;61.61;44990.59;5134842;27;20188;-60
2023/09/20 10:51:53;;;;;;;22.30;21.00;;;;;;;-141.02;60.32;45415.16;5134641;27;20197;-60
2023/09/20 10:54:21;;;;;;;22.88;21.58;;;;;;;-141.02;59.17;44848.44;5134691;27;20207;-67
2023/09/20 10:57:05;;;;;;;23.58;22.27;;;;;;;-141.02;61.43;45290.28;5134323;27;20200;-60
2023/09/20 10:59:34;;;;;;;22.52;21.23;;;;;;;-141.02;59.94;45078.94;5134237;27;20212;-60
2023/09/20 11:02:05;;;;;;;21.92;20.63;;;;;;;-141.02;58.95;44600.66;5134510;27;20273;-59
2023/09/20 11:04:32;;;;;;;22.27;20.98;;;;;;;-141.02;59.31;44982.91;5134218;27;20230;-60
2023/09/20 11:07:02;;;;;;;22.10;20.90;;;;;;;-141.02;58.24;45098.16;5134400;27;20227;-60
2023/09/20 11:09:31;;;;;;;22.60;21.30;;;;;;;-141.02;55.61;44124.34;5134742;27;20325;-60
2023/09/20 11:12:06;;;;;;;21.83;20.60;;;;;;;-141.02;57.41;43578.97;5134387;27;20279;-60
2023/09/20 11:14:34;;;;;;;21.38;20.17;;;;;;;-141.02;59.47;44130.09;5134300;27;20279;-60
2023/09/20 11:17:02;;;;;;;21.77;20.52;;;;;;;-141.02;57.34;43953.41;5134247;27;20192;-60
2023/09/20 11:19:29;;;;;;;21.92;20.63;;;;;;;-141.02;60.05;44473.88;5134085;27;20236;-60
2023/09/20 11:21:58;;;;;;;21.92;20.63;;;;;;;-141.02;57.41;44771.59;5133791;27;20196;-60
2023/09/20 11:24:27;;;;;;;21.95;20.65;;;;;;;-141.02;56.43;44790.81;5134127;27;20632;-60
2023/09/20 11:26:55;;;;;;;22.35;21.05;;;;;;;-141.02;57.16;44640.97;5134001;27;20635;-60
2023/09/20 11:29:22;;;;;;;22.35;21.05;;;;;;;-141.02;57.61;43477.19;5134050;27;20606;-60
2023/09/20 11:31:50;;;;;;;22.08;20.77;;;;;;;-141.02;58.45;44397.06;5133603;27;20196;-60
2023/09/20 11:34:19;;;;;;;29.05;27.33;;;;;;;-141.02;57.20;44137.78;5133917;27;20275;-60
2023/09/20 11:36:47;;;;;;;22.38;21.08;;;;;;;-141.02;57.87;43661.53;5133821;27;20197;-60
2023/09/20 11:39:17;;;;;;;21.52;20.23;;;;;;;-141.02;56.72;43565.53;5133467;27;20220;-60
2023/09/20 11:41:46;;;;;;;25.98;24.48;;;;;;;-141.02;56.67;43918.84;5133782;27;20203;-60
2023/09/20 11:44:13;;;;;;;22.58;21.25;;;;;;;-141.02;56.76;44640.97;5133396;27;20279;-60
2023/09/20 11:46:40;;;;;;;23.80;22.40;;;;;;;-141.02;56.81;45528.50;5133387;27;20188;-60
2023/09/20 11:49:08;;;;;;;22.83;21.42;;;;;;;-141.02;56.01;44660.19;5133659;27;20193;-60
2023/09/20 11:51:37;;;;;;;22.85;21.45;;;;;;;-141.02;55.03;43934.22;5133687;27;20188;-61
2023/09/20 11:54:10;;;;;;;22.75;21.35;;;;;;;-141.02;54.50;44114.72;5133552;27;20188;-60